createdAt,value
2018-07-29T00:01:34.024Z,99.90
2018-07-29T00:04:01.632Z,99.90
2018-07-29T00:06:29.244Z,99.90
2018-07-29T00:08:56.838Z,99.90
2018-07-29T00:11:24.451Z,99.90
2018-07-29T00:13:52.055Z,99.90
2018-07-29T00:16:19.691Z,99.90
2018-07-29T00:18:47.301Z,99.90
2018-07-29T00:21:14.921Z,99.90
2018-07-29T00:23:42.511Z,99.90
2018-07-29T00:26:10.126Z,99.90
2018-07-29T00:28:37.724Z,99.90
2018-07-29T00:31:05.334Z,99.90
2018-07-29T00:33:32.931Z,99.90
2018-07-29T00:36:00.561Z,99.90
2018-07-29T00:38:28.205Z,99.90
2018-07-29T00:40:55.827Z,99.90
2018-07-29T00:43:23.428Z,99.90
2018-07-29T00:45:51.051Z,99.90
2018-07-29T00:48:18.671Z,99.90
2018-07-29T00:50:46.270Z,99.90
2018-07-29T00:53:13.902Z,99.90
2018-07-29T00:55:41.514Z,99.90
2018-07-29T00:58:09.127Z,99.90
2018-07-29T01:00:36.722Z,99.90
2018-07-29T01:03:04.411Z,99.90
2018-07-29T01:05:32.015Z,99.90
2018-07-29T01:07:59.627Z,99.90
2018-07-29T01:10:27.291Z,99.90
2018-07-29T01:12:54.903Z,99.90
2018-07-29T01:15:22.520Z,99.90
2018-07-29T01:17:50.138Z,99.90
2018-07-29T01:20:17.750Z,99.90
2018-07-29T01:22:45.372Z,99.90
2018-07-29T01:25:12.967Z,99.90
2018-07-29T01:27:40.583Z,99.90
2018-07-29T01:30:08.587Z,99.90
2018-07-29T01:32:36.208Z,99.90
2018-07-29T01:35:03.811Z,99.90
2018-07-29T01:37:31.422Z,99.90
2018-07-29T01:39:59.023Z,99.90
2018-07-29T01:42:26.670Z,99.90
2018-07-29T01:44:54.303Z,99.90
2018-07-29T01:47:21.915Z,99.90
2018-07-29T01:49:49.511Z,99.90
2018-07-29T01:52:17.132Z,99.90
2018-07-29T01:54:44.735Z,99.90
2018-07-29T01:57:12.331Z,99.90
2018-07-29T01:59:39.947Z,99.90
2018-07-29T02:04:34.935Z,99.90
2018-07-29T02:07:02.531Z,99.90
2018-07-29T02:09:30.154Z,99.90
2018-07-29T02:11:57.779Z,99.90
2018-07-29T02:14:25.430Z,99.90
2018-07-29T02:16:53.143Z,99.90
2018-07-29T02:19:20.759Z,99.90
2018-07-29T02:21:48.395Z,99.90
2018-07-29T02:24:16.012Z,99.90
2018-07-29T02:26:43.639Z,99.90
2018-07-29T02:29:11.251Z,99.90
2018-07-29T02:31:38.852Z,99.90
2018-07-29T02:34:06.480Z,99.90
2018-07-29T02:36:34.079Z,99.90
2018-07-29T02:39:01.700Z,99.90
2018-07-29T02:41:29.300Z,99.90
2018-07-29T02:43:56.923Z,99.90
2018-07-29T02:46:24.527Z,99.90
2018-07-29T02:48:52.135Z,99.90
2018-07-29T02:51:19.734Z,99.90
2018-07-29T02:53:47.692Z,99.90
2018-07-29T02:56:15.868Z,99.90
2018-07-29T02:58:43.504Z,99.90
2018-07-29T03:01:11.103Z,99.90
2018-07-29T03:03:38.708Z,99.90
2018-07-29T03:06:06.331Z,99.90
2018-07-29T03:08:33.935Z,99.90
2018-07-29T03:11:01.551Z,99.90
2018-07-29T03:13:29.164Z,99.90
2018-07-29T03:15:56.803Z,99.90
2018-07-29T03:18:24.407Z,99.90
2018-07-29T03:20:52.028Z,99.90
2018-07-29T03:23:19.627Z,99.90
2018-07-29T03:25:47.249Z,99.90
2018-07-29T03:28:14.847Z,99.90
2018-07-29T03:30:42.471Z,99.90
2018-07-29T03:33:10.068Z,99.90
2018-07-29T03:35:37.683Z,99.90
2018-07-29T03:38:05.283Z,99.90
2018-07-29T03:40:32.943Z,99.90
2018-07-29T03:43:00.542Z,99.90
2018-07-29T03:45:28.159Z,99.90
2018-07-29T03:47:55.750Z,99.90
2018-07-29T03:50:23.363Z,99.90
2018-07-29T03:52:50.955Z,99.90
2018-07-29T03:55:18.628Z,99.90
2018-07-29T03:57:46.223Z,99.90
2018-07-29T04:00:13.844Z,99.90
2018-07-29T04:02:41.440Z,99.90
2018-07-29T04:05:09.055Z,99.90
2018-07-29T04:07:36.655Z,99.90
2018-07-29T04:10:04.511Z,99.90
2018-07-29T04:12:32.131Z,99.90
2018-07-29T04:14:59.735Z,99.90
2018-07-29T04:17:27.373Z,99.90
2018-07-29T04:19:54.967Z,99.90
2018-07-29T04:22:22.578Z,99.90
2018-07-29T04:24:50.175Z,99.90
2018-07-29T04:27:17.789Z,99.90
2018-07-29T04:29:45.384Z,99.90
2018-07-29T04:32:12.995Z,99.90
2018-07-29T04:34:40.593Z,99.90
2018-07-29T04:37:08.810Z,99.90
2018-07-29T04:39:36.407Z,99.90
2018-07-29T04:42:04.137Z,99.90
2018-07-29T04:44:31.735Z,99.90
2018-07-29T04:46:59.351Z,99.90
2018-07-29T04:49:26.950Z,99.90
2018-07-29T04:51:54.559Z,99.90
2018-07-29T04:54:22.159Z,99.90
2018-07-29T04:56:49.793Z,99.90
2018-07-29T04:59:17.404Z,99.90
2018-07-29T05:01:45.019Z,99.90
2018-07-29T05:04:12.615Z,99.90
2018-07-29T05:06:40.234Z,99.90
2018-07-29T05:09:08.467Z,99.90
2018-07-29T05:11:36.083Z,99.90
2018-07-29T05:14:03.710Z,99.90
2018-07-29T05:16:31.343Z,99.90
2018-07-29T05:18:58.939Z,99.90
2018-07-29T05:21:26.547Z,99.90
2018-07-29T05:23:54.161Z,99.90
2018-07-29T05:26:21.759Z,99.90
2018-07-29T05:28:49.376Z,99.90
2018-07-29T05:31:16.976Z,99.90
2018-07-29T05:33:44.603Z,99.90
2018-07-29T05:36:12.199Z,99.90
2018-07-29T05:38:39.867Z,99.90
2018-07-29T05:41:07.455Z,99.90
2018-07-29T05:43:35.067Z,99.90
2018-07-29T05:46:02.662Z,99.90
2018-07-29T05:48:30.279Z,99.90
2018-07-29T05:50:57.876Z,99.90
2018-07-29T05:53:25.499Z,99.90
2018-07-29T05:55:53.239Z,99.90
2018-07-29T05:58:20.860Z,99.90
2018-07-29T06:00:48.586Z,99.90
2018-07-29T06:03:16.204Z,99.90
2018-07-29T06:05:43.804Z,99.90
2018-07-29T06:08:11.429Z,99.90
2018-07-29T06:10:39.031Z,99.90
2018-07-29T06:13:06.656Z,99.90
2018-07-29T06:15:34.270Z,99.90
2018-07-29T06:18:01.897Z,99.90
2018-07-29T06:20:29.482Z,99.90
2018-07-29T06:22:57.095Z,99.90
2018-07-29T06:25:24.691Z,99.90
2018-07-29T06:27:52.296Z,99.90
2018-07-29T06:30:19.916Z,99.90
2018-07-29T06:32:47.515Z,99.90
2018-07-29T06:35:15.136Z,99.90
2018-07-29T06:37:42.758Z,99.90
2018-07-29T06:40:10.383Z,99.90
2018-07-29T06:42:38.004Z,99.90
2018-07-29T06:45:05.641Z,99.90
2018-07-29T06:47:33.235Z,99.90
2018-07-29T06:50:00.851Z,99.90
2018-07-29T06:52:28.444Z,99.90
2018-07-29T06:54:56.074Z,99.90
2018-07-29T06:57:23.667Z,99.90
2018-07-29T06:59:51.278Z,99.90
2018-07-29T07:02:18.891Z,99.90
2018-07-29T07:04:46.512Z,99.90
2018-07-29T07:07:14.297Z,99.90
2018-07-29T07:09:41.912Z,99.90
2018-07-29T07:12:09.515Z,99.90
2018-07-29T07:14:37.135Z,99.90
2018-07-29T07:17:04.809Z,99.90
2018-07-29T07:19:32.531Z,99.90
2018-07-29T07:22:00.253Z,99.90
2018-07-29T07:24:31.593Z,99.90
2018-07-29T07:26:59.266Z,99.90
2018-07-29T07:29:27.075Z,99.90
2018-07-29T07:31:54.671Z,99.90
2018-07-29T07:34:22.360Z,99.90
2018-07-29T07:36:50.084Z,99.90
2018-07-29T07:39:17.675Z,99.90
2018-07-29T07:41:45.295Z,99.90
2018-07-29T07:44:12.897Z,99.90
2018-07-29T07:46:40.511Z,99.90
2018-07-29T07:49:08.103Z,99.90
2018-07-29T07:51:36.530Z,99.90
2018-07-29T07:54:04.159Z,99.90
2018-07-29T07:56:31.819Z,99.90
2018-07-29T07:58:59.435Z,99.90
2018-07-29T08:01:27.055Z,99.90
2018-07-29T08:03:54.656Z,99.90
2018-07-29T08:06:22.288Z,99.90
2018-07-29T08:08:49.885Z,99.90
2018-07-29T08:11:17.509Z,99.90
2018-07-29T08:13:45.905Z,99.90
2018-07-29T08:16:13.600Z,99.90
2018-07-29T08:18:41.187Z,99.90
2018-07-29T08:21:08.799Z,99.90
2018-07-29T08:23:36.395Z,99.90
2018-07-29T08:26:04.051Z,99.90
2018-07-29T08:28:31.699Z,99.90
2018-07-29T08:30:59.314Z,99.90
2018-07-29T08:33:27.005Z,99.90
2018-07-29T08:35:54.643Z,99.90
2018-07-29T08:38:22.235Z,99.90
2018-07-29T08:43:17.220Z,99.90
2018-07-29T08:45:44.845Z,99.90
2018-07-29T08:48:12.443Z,99.90
2018-07-29T08:50:40.087Z,99.90
2018-07-29T08:53:07.707Z,99.90
2018-07-29T08:55:35.303Z,99.90
2018-07-29T08:58:02.919Z,99.90
2018-07-29T09:00:30.514Z,99.90
2018-07-29T09:02:58.160Z,99.90
2018-07-29T09:05:25.759Z,99.90
2018-07-29T09:07:53.386Z,99.90
2018-07-29T09:10:20.984Z,99.90
2018-07-29T09:15:16.082Z,99.90
2018-07-29T09:17:43.724Z,99.90
2018-07-29T09:20:11.323Z,99.90
2018-07-29T09:22:38.970Z,99.90
2018-07-29T09:25:06.770Z,99.90
2018-07-29T09:27:34.403Z,99.90
2018-07-29T09:30:01.996Z,99.90
2018-07-29T09:32:29.663Z,99.90
2018-07-29T09:34:57.307Z,99.90
2018-07-29T09:37:24.919Z,99.90
2018-07-29T09:39:52.748Z,99.90
2018-07-29T09:42:20.336Z,99.90
2018-07-29T09:44:47.942Z,99.90
2018-07-29T09:47:17.407Z,99.90
2018-07-29T09:49:45.153Z,99.90
2018-07-29T09:52:13.121Z,99.90
2018-07-29T09:54:40.771Z,99.90
2018-07-29T09:57:08.375Z,99.90
2018-07-29T09:59:36.853Z,99.90
2018-07-29T10:02:05.668Z,99.90
2018-07-29T10:04:33.328Z,99.90
2018-07-29T10:07:01.024Z,99.90
2018-07-29T10:09:31.781Z,99.90
2018-07-29T10:11:59.847Z,99.90
2018-07-29T10:14:28.047Z,99.90
2018-07-29T10:16:55.691Z,99.90
2018-07-29T10:19:23.315Z,99.90
2018-07-29T10:21:50.921Z,99.90
2018-07-29T10:26:46.504Z,99.90
2018-07-29T10:29:14.168Z,99.90
2018-07-29T10:34:09.156Z,99.90
2018-07-29T10:36:36.882Z,99.90
2018-07-29T10:39:06.923Z,99.90
2018-07-29T10:41:35.417Z,99.90
2018-07-29T10:44:03.416Z,99.90
2018-07-29T10:46:32.330Z,99.90
2018-07-29T10:49:00.186Z,99.90
2018-07-29T10:51:35.324Z,99.90
2018-07-29T10:54:03.576Z,99.90
2018-07-29T10:56:31.235Z,99.90
2018-07-29T10:58:59.538Z,99.90
2018-07-29T11:01:27.160Z,99.90
2018-07-29T11:03:54.815Z,99.90
2018-07-29T11:08:49.775Z,99.90
2018-07-29T11:11:17.412Z,99.90
2018-07-29T11:13:45.096Z,99.90
2018-07-29T11:16:12.690Z,99.90
2018-07-29T11:18:40.359Z,99.90
2018-07-29T11:21:08.556Z,99.90
2018-07-29T11:23:36.122Z,99.90
2018-07-29T11:26:03.756Z,99.90
2018-07-29T11:28:31.358Z,99.90
2018-07-29T11:30:59.284Z,99.90
2018-07-29T11:33:26.882Z,99.90
2018-07-29T11:35:54.512Z,99.90
2018-07-29T11:38:22.115Z,99.90
2018-07-29T11:40:49.749Z,99.90
2018-07-29T11:43:19.772Z,99.90
2018-07-29T11:45:47.890Z,99.90
2018-07-29T11:48:15.492Z,99.90
2018-07-29T11:50:43.111Z,99.90
2018-07-29T11:53:10.767Z,99.90
2018-07-29T11:55:38.387Z,99.90
2018-07-29T11:58:06.227Z,99.90
2018-07-29T12:00:33.845Z,99.90
2018-07-29T12:03:01.501Z,99.90
2018-07-29T12:05:29.087Z,99.90
2018-07-29T12:07:56.716Z,99.90
2018-07-29T12:10:24.335Z,99.90
2018-07-29T12:12:51.932Z,99.90
2018-07-29T12:15:19.556Z,99.90
2018-07-29T12:17:47.923Z,99.90
2018-07-29T12:20:15.543Z,99.90
2018-07-29T12:22:43.231Z,99.90
2018-07-29T12:25:10.840Z,99.90
2018-07-29T12:27:39.289Z,99.90
2018-07-29T12:30:07.350Z,99.90
2018-07-29T12:32:34.963Z,99.90
2018-07-29T12:35:02.679Z,99.90
2018-07-29T12:37:30.364Z,99.90
2018-07-29T12:39:57.964Z,99.90
2018-07-29T12:42:25.739Z,99.90
2018-07-29T12:44:54.779Z,99.90
2018-07-29T12:49:50.180Z,99.90
2018-07-29T12:52:17.812Z,99.90
2018-07-29T12:54:45.508Z,99.90
2018-07-29T12:57:13.123Z,99.90
2018-07-29T12:59:40.725Z,99.90
2018-07-29T13:02:09.174Z,99.90
2018-07-29T13:04:37.198Z,99.90
2018-07-29T13:07:05.075Z,99.90
2018-07-29T13:09:32.716Z,99.90
2018-07-29T13:12:01.116Z,99.90
2018-07-29T13:14:28.623Z,99.90
2018-07-29T13:16:56.255Z,99.90
2018-07-29T13:19:23.896Z,99.90
2018-07-29T13:21:51.514Z,99.90
2018-07-29T13:24:19.118Z,99.90
2018-07-29T13:26:46.739Z,99.90
2018-07-29T13:29:14.338Z,99.90
2018-07-29T13:31:41.935Z,99.90
2018-07-29T13:34:09.551Z,99.90
2018-07-29T13:36:37.156Z,99.90
2018-07-29T13:39:06.048Z,99.90
2018-07-29T13:41:33.644Z,99.90
2018-07-29T13:44:02.000Z,99.90
2018-07-29T13:46:30.302Z,99.90
2018-07-29T13:48:57.927Z,99.90
2018-07-29T13:51:26.339Z,99.90
2018-07-29T13:53:55.052Z,99.90
2018-07-29T13:56:22.729Z,99.90
2018-07-29T13:58:50.359Z,99.90
2018-07-29T14:01:18.063Z,99.90
2018-07-29T14:03:45.783Z,99.90
2018-07-29T14:06:13.380Z,99.90
2018-07-29T14:08:41.017Z,99.90
2018-07-29T14:11:08.620Z,99.90
2018-07-29T14:13:36.504Z,99.90
2018-07-29T14:16:04.183Z,99.90
2018-07-29T14:18:31.856Z,99.90
2018-07-29T14:20:59.500Z,99.90
2018-07-29T14:23:27.115Z,99.90
2018-07-29T14:25:54.715Z,99.90
2018-07-29T14:28:22.388Z,99.90
2018-07-29T14:30:49.991Z,99.90
2018-07-29T14:33:17.611Z,99.90
2018-07-29T14:35:45.279Z,99.90
2018-07-29T14:38:12.908Z,99.90
2018-07-29T14:40:40.504Z,99.90
2018-07-29T14:43:08.139Z,99.90
2018-07-29T14:45:35.792Z,99.90
2018-07-29T14:48:03.396Z,99.90
2018-07-29T14:50:31.055Z,99.90
2018-07-29T14:52:58.763Z,99.90
2018-07-29T14:55:26.351Z,99.90
2018-07-29T14:57:53.979Z,99.90
2018-07-29T15:00:21.881Z,99.90
2018-07-29T15:02:49.543Z,99.30
2018-07-29T15:05:17.155Z,99.90
2018-07-29T15:07:44.769Z,99.60
2018-07-29T15:12:43.843Z,99.00
2018-07-29T15:15:11.463Z,99.70
2018-07-29T15:17:39.079Z,97.70
2018-07-29T15:20:06.730Z,99.90
2018-07-29T15:22:34.341Z,98.70
2018-07-29T15:25:01.959Z,96.60
2018-07-29T15:27:29.555Z,97.40
2018-07-29T15:29:57.176Z,98.70
2018-07-29T15:32:24.772Z,97.70
2018-07-29T15:34:52.387Z,98.60
2018-07-29T15:37:19.987Z,98.60
2018-07-29T15:39:47.611Z,98.30
2018-07-29T15:42:15.211Z,98.80
2018-07-29T15:44:42.876Z,96.10
2018-07-29T15:47:10.483Z,95.80
2018-07-29T15:49:38.079Z,95.30
2018-07-29T15:52:05.747Z,95.30
2018-07-29T15:54:33.352Z,94.70
2018-07-29T15:57:00.983Z,94.90
2018-07-29T15:59:28.625Z,94.00
2018-07-29T16:01:56.219Z,95.70
2018-07-29T16:04:23.831Z,96.40
2018-07-29T16:06:51.476Z,94.30
2018-07-29T16:09:19.071Z,96.60
2018-07-29T16:11:46.688Z,96.20
2018-07-29T16:14:14.283Z,95.10
2018-07-29T16:16:41.919Z,95.10
2018-07-29T16:19:09.511Z,94.40
2018-07-29T16:21:37.126Z,94.50
2018-07-29T16:24:04.950Z,94.20
2018-07-29T16:26:32.592Z,95.30
2018-07-29T16:29:00.188Z,95.50
2018-07-29T16:31:27.804Z,94.50
2018-07-29T16:33:55.402Z,95.70
2018-07-29T16:36:23.041Z,96.70
2018-07-29T16:38:50.713Z,97.20
2018-07-29T16:41:18.331Z,95.80
2018-07-29T16:43:45.927Z,97.20
2018-07-29T16:46:13.556Z,98.00
2018-07-29T16:48:41.155Z,96.20
2018-07-29T16:51:09.747Z,95.70
2018-07-29T16:53:37.428Z,96.70
2018-07-29T16:56:05.144Z,95.30
2018-07-29T16:58:33.565Z,94.50
2018-07-29T17:01:01.207Z,96.20
2018-07-29T17:03:28.822Z,94.70
2018-07-29T17:05:56.879Z,95.70
2018-07-29T17:08:24.925Z,98.00
2018-07-29T17:10:52.527Z,96.80
2018-07-29T17:13:20.147Z,96.90
2018-07-29T17:15:47.827Z,98.90
2018-07-29T17:18:15.447Z,97.80
2018-07-29T17:20:43.051Z,99.10
2018-07-29T17:23:10.663Z,99.90
2018-07-29T17:25:38.300Z,99.90
2018-07-29T17:28:05.928Z,99.90
2018-07-29T17:30:33.603Z,99.90
2018-07-29T17:33:01.211Z,99.90
2018-07-29T17:35:30.151Z,99.90
2018-07-29T17:37:57.768Z,99.90
2018-07-29T17:40:25.371Z,99.90
2018-07-29T17:42:52.992Z,99.90
2018-07-29T17:45:20.592Z,99.90
2018-07-29T17:47:48.208Z,99.90
2018-07-29T17:50:15.803Z,99.90
2018-07-29T17:52:43.419Z,99.90
2018-07-29T17:55:11.015Z,99.90
2018-07-29T17:57:38.653Z,99.90
2018-07-29T18:00:06.259Z,99.90
2018-07-29T18:02:33.886Z,99.90
2018-07-29T18:05:01.547Z,99.90
2018-07-29T18:07:29.155Z,99.90
2018-07-29T18:09:56.771Z,99.90
2018-07-29T18:12:24.370Z,99.60
2018-07-29T18:14:51.978Z,99.50
2018-07-29T18:17:19.634Z,99.30
2018-07-29T18:19:47.247Z,99.80
2018-07-29T18:22:14.838Z,99.90
2018-07-29T18:24:42.451Z,99.60
2018-07-29T18:27:10.044Z,99.90
2018-07-29T18:29:37.668Z,99.90
2018-07-29T18:32:05.262Z,99.90
2018-07-29T18:34:32.915Z,99.90
2018-07-29T18:37:00.511Z,99.90
2018-07-29T18:39:28.257Z,99.90
2018-07-29T18:41:55.824Z,99.90
2018-07-29T18:44:23.443Z,99.90
2018-07-29T18:46:51.043Z,99.90
2018-07-29T18:49:18.664Z,99.90
2018-07-29T18:51:46.364Z,99.90
2018-07-29T18:54:13.992Z,99.90
2018-07-29T18:56:41.592Z,99.90
2018-07-29T18:59:09.207Z,99.90
2018-07-29T19:01:36.806Z,99.90
2018-07-29T19:04:04.556Z,99.90
2018-07-29T19:06:32.133Z,99.90
2018-07-29T19:08:59.724Z,99.90
2018-07-29T19:11:27.356Z,99.90
2018-07-29T19:13:54.982Z,99.90
2018-07-29T19:16:22.727Z,99.90
2018-07-29T19:18:50.329Z,99.90
2018-07-29T19:21:17.964Z,99.90
2018-07-29T19:23:45.611Z,99.90
2018-07-29T19:26:13.223Z,99.90
2018-07-29T19:28:40.823Z,99.90
2018-07-29T19:31:08.436Z,99.90
2018-07-29T19:33:36.133Z,99.90
2018-07-29T19:36:03.670Z,99.90
2018-07-29T19:38:31.263Z,99.90
2018-07-29T19:40:58.879Z,99.90
2018-07-29T19:43:26.475Z,99.90
2018-07-29T19:45:54.095Z,99.90
2018-07-29T19:48:21.699Z,99.90
2018-07-29T19:50:49.311Z,99.90
2018-07-29T19:53:16.976Z,99.90
2018-07-29T19:55:45.270Z,99.90
2018-07-29T19:58:12.904Z,99.90
2018-07-29T20:00:40.547Z,99.90
2018-07-29T20:03:08.142Z,99.90
2018-07-29T20:05:35.763Z,99.90
2018-07-29T20:08:03.363Z,99.90
2018-07-29T20:10:30.988Z,99.90
2018-07-29T20:12:58.591Z,99.90
2018-07-29T20:15:26.207Z,99.90
2018-07-29T20:17:53.890Z,99.90
2018-07-29T20:20:21.534Z,99.90
2018-07-29T20:22:49.193Z,99.90
2018-07-29T20:25:16.863Z,99.90
2018-07-29T20:27:44.486Z,99.90
2018-07-29T20:30:12.087Z,99.90
2018-07-29T20:32:39.771Z,99.90
2018-07-29T20:35:07.455Z,99.90
2018-07-29T20:37:35.391Z,99.90
2018-07-29T20:40:04.380Z,99.90
2018-07-29T20:42:33.024Z,99.90
2018-07-29T20:45:00.706Z,99.90
2018-07-29T20:47:28.327Z,99.90
2018-07-29T20:49:55.959Z,99.90
2018-07-29T20:52:23.570Z,99.90
2018-07-29T20:54:51.167Z,99.90
2018-07-29T20:57:19.163Z,99.90
2018-07-29T20:59:46.763Z,99.90
2018-07-29T21:02:14.469Z,99.90
2018-07-29T21:04:42.067Z,99.90
2018-07-29T21:07:09.684Z,99.90
2018-07-29T21:09:37.283Z,99.90
2018-07-29T21:12:04.928Z,99.90
2018-07-29T21:14:32.525Z,99.90
2018-07-29T21:19:27.564Z,99.90
2018-07-29T21:21:55.187Z,99.90
2018-07-29T21:24:23.140Z,99.90
2018-07-29T21:26:50.751Z,99.90
2018-07-29T21:29:18.348Z,99.90
2018-07-29T21:31:45.939Z,99.90
2018-07-29T21:34:13.554Z,99.90
2018-07-29T21:36:41.155Z,99.90
2018-07-29T21:39:09.511Z,99.90
2018-07-29T21:41:37.112Z,99.90
2018-07-29T21:44:04.847Z,99.90
2018-07-29T21:46:32.443Z,99.90
2018-07-29T21:49:00.064Z,99.90
2018-07-29T21:51:27.691Z,99.90
2018-07-29T21:53:55.323Z,99.90
2018-07-29T21:56:22.921Z,99.90
2018-07-29T21:58:50.591Z,99.90
2018-07-29T22:01:18.158Z,99.90
2018-07-29T22:03:45.775Z,99.90
2018-07-29T22:06:13.476Z,99.90
2018-07-29T22:08:41.144Z,99.90
2018-07-29T22:11:08.723Z,99.90
2018-07-29T22:13:36.331Z,99.90
2018-07-29T22:16:03.954Z,99.90
2018-07-29T22:18:31.577Z,99.90
2018-07-29T22:20:59.175Z,99.90
2018-07-29T22:23:26.855Z,99.90
2018-07-29T22:26:00.022Z,99.90
2018-07-29T22:28:31.019Z,99.90
2018-07-29T22:31:04.818Z,99.90
2018-07-29T22:33:33.732Z,99.90
2018-07-29T22:36:01.328Z,99.90
2018-07-29T22:38:28.949Z,99.90
2018-07-29T22:40:56.591Z,99.90
2018-07-29T22:43:24.207Z,99.90
2018-07-29T22:45:51.819Z,99.90
2018-07-29T22:48:19.434Z,99.90
2018-07-29T22:50:47.055Z,99.90
2018-07-29T22:53:14.646Z,99.90
2018-07-29T22:55:42.263Z,99.90
2018-07-29T22:58:09.911Z,99.90
2018-07-29T23:00:37.536Z,99.90
2018-07-29T23:03:05.696Z,99.90
2018-07-29T23:05:33.316Z,99.90
2018-07-29T23:08:00.920Z,99.90
2018-07-29T23:10:28.544Z,99.90
2018-07-29T23:12:56.139Z,99.90
2018-07-29T23:15:23.758Z,99.90
2018-07-29T23:17:51.372Z,99.90
2018-07-29T23:20:19.032Z,99.90
2018-07-29T23:22:46.619Z,99.90
2018-07-29T23:25:14.235Z,99.90
2018-07-29T23:30:09.281Z,99.90
2018-07-29T23:32:36.865Z,99.90
2018-07-29T23:35:04.484Z,99.90
2018-07-29T23:37:32.091Z,99.90
2018-07-29T23:39:59.703Z,99.90
2018-07-29T23:42:27.303Z,99.90
2018-07-29T23:44:54.919Z,99.90
2018-07-29T23:47:22.515Z,99.90
2018-07-29T23:49:50.128Z,99.90
2018-07-29T23:52:17.719Z,99.90
2018-07-29T23:54:45.341Z,99.90
2018-07-29T23:57:12.934Z,99.90
2018-07-29T23:59:40.527Z,99.90
